Chardon, OH (44024)

7:52 PM EST on December 08, 2016 (GMT -0500)
| | Change Station
Active Advisory: Lake Effect Snow Warning

Elev -9999 ft 0.00 °N, 0.00 °E | Updated 2 minutes ago

Snow
Snow
69 °F
Feels Like 69 °F
N
5
Wind Variable Wind from South
Gusts mph

Today
High -- | Low -- °F
--% Chance of Precip.
Yesterday
High -- | Low -- °F
Precip. -- in
Pressure 30.18 in
Visibility 4.0 miles
Clouds Mostly Cloudy 1800 ft
Overcast 2500 ft
Dew Point 66 °F
Humidity 89%
Rainfall --
Snow Depth Not available.
7:39 AM 4:54 PM
Waxing Gibbous, 68% visible
METAR KCGF 082345Z 26014G22KT 4SM -SN BKN018 OVC025 M03/M06 A3018
Pressure 30.18 in
Visibility 4.0 miles
Clouds Mostly Cloudy 1800 ft
Overcast 2500 ft
Dew Point 66 °F
Humidity 89%
Rainfall --
Snow Depth Not available.
7:39 AM 4:54 PM
Waxing Gibbous, 68% visible
METAR KCGF 082345Z 26014G22KT 4SM -SN BKN018 OVC025 M03/M06 A3018

10-Day Weather Forecast

Almanac

Astronomy

Dec. 08, 2016 Rise Set
Actual Time
Civil Twilight
Nautical Twilight
Astronomical Twilight
Moon
Length of Visible Light
Length of Day
Tomorrow will be .
, % of the Moon is Illuminated

Today's Extremes

State Highs State Lows

Community

WunderPhotos

Upload Photos

1,956,277 photos uploaded!

WunderBlog® & News

Nearby

Air Quality

  Air Quality AQ Index Pollutant
Not available.

Snow Depth

Station Depth Elevation

Earthquake Activity

City Distance Mag. Time & Date
Minimum magnitude displayed is 2.5.

Coastal Water Temperatures

Place Temperature

Stations

Nearby Weather Stations

Station Location Temp. Windchill Dew Point Humidity Wind Precip. Elev Updated Type
                   

Watches & Warnings

Lake Effect Snow Warning
Issued: 5:06 PM EST Dec. 8, 2016 – National Weather Service

... Lake effect snow warning now in effect until 4 PM EST
Saturday...

* accumulations... a storm total of 10 to 18 inches is likely by
Saturday afternoon. The highest amounts will likely occur from
Chardon to Montville.

* Timing... snow will become heavy at times by the evening. Snow
showers and squalls will continue at times on Friday into
Saturday.

* Impacts... lake effect snow and snow squalls will lead to
significant accumulations of snow and very poor visibilities
at times. Hazardous travel conditions are expected.

* Winds... west 10 to 20 mph with gusts up to 30 mph.

Precautionary/preparedness actions...

A lake effect snow warning is issued when heavy lake effect snow
is expected or occurring. During lake effect snow... the weather
can vary from bands of locally heavy snow to dry weather just a
few miles away. Visibilities can vary greatly and can drop to
near zero in the heavier lake effect snow bands. If you will be
traveling in the warned area be prepared for rapid changes in
weather... visibility and Road conditions. Local travel
restrictions may be in effect.